sensor_id;sensor_type;location;lat;lon;timestamp;pressure;altitude;pressure_sealevel;temperature;humidity
42247;BME280;27913;42.722;23.268;2023-05-20T00:04:06;95196.72;;;11.75;94.88
42247;BME280;27913;42.722;23.268;2023-05-20T00:06:32;95139.41;;;11.33;95.34
42247;BME280;27913;42.722;23.268;2023-05-20T00:08:59;95228.66;;;11.87;95.17
42247;BME280;27913;42.722;23.268;2023-05-20T00:11:24;95201.88;;;11.62;95.64
42247;BME280;27913;42.722;23.268;2023-05-20T00:13:50;95150.31;;;11.30;96.25
42247;BME280;27913;42.722;23.268;2023-05-20T00:16:15;95196.72;;;11.75;96.23
42247;BME280;27913;42.722;23.268;2023-05-20T00:18:41;95323.13;;;12.56;96.52
42247;BME280;27913;42.722;23.268;2023-05-20T00:21:06;95332.47;;;12.59;96.11
42247;BME280;27913;42.722;23.268;2023-05-20T00:23:32;95315.28;;;12.63;95.70
42247;BME280;27913;42.722;23.268;2023-05-20T00:25:57;95313.06;;;12.66;96.03
42247;BME280;27913;42.722;23.268;2023-05-20T00:28:23;95305.38;;;12.72;95.43
42247;BME280;27913;42.722;23.268;2023-05-20T00:30:48;95312.72;;;12.76;95.21
42247;BME280;27913;42.722;23.268;2023-05-20T00:33:14;95301.56;;;12.81;95.24
42247;BME280;27913;42.722;23.268;2023-05-20T00:35:39;95303.03;;;12.84;95.01
42247;BME280;27913;42.722;23.268;2023-05-20T00:38:05;95179.38;;;12.10;94.46
42247;BME280;27913;42.722;23.268;2023-05-20T00:40:30;95312.19;;;12.88;94.52
42247;BME280;27913;42.722;23.268;2023-05-20T00:42:55;95064.13;;;11.39;94.39
42247;BME280;27913;42.722;23.268;2023-05-20T00:45:21;95295.13;;;12.90;93.87
42247;BME280;27913;42.722;23.268;2023-05-20T00:47:47;95272.91;;;12.71;93.46
42247;BME280;27913;42.722;23.268;2023-05-20T00:50:12;95180.25;;;12.17;93.13
42247;BME280;27913;42.722;23.268;2023-05-20T00:52:38;95295.53;;;12.87;93.46
42247;BME280;27913;42.722;23.268;2023-05-20T00:55:05;95250.31;;;12.62;93.49
42247;BME280;27913;42.722;23.268;2023-05-20T00:57:31;95301.38;;;12.83;93.43
42247;BME280;27913;42.722;23.268;2023-05-20T00:59:57;95299.38;;;12.85;92.65
42247;BME280;27913;42.722;23.268;2023-05-20T01:02:23;95293.84;;;12.79;92.46
42247;BME280;27913;42.722;23.268;2023-05-20T01:04:48;95294.44;;;12.75;92.44
42247;BME280;27913;42.722;23.268;2023-05-20T01:07:15;95293.38;;;12.69;92.17
42247;BME280;27913;42.722;23.268;2023-05-20T01:09:42;95299.22;;;12.58;91.96
42247;BME280;27913;42.722;23.268;2023-05-20T01:12:30;95291.84;;;12.53;92.40
42247;BME280;27913;42.722;23.268;2023-05-20T01:15:00;95295.84;;;12.42;92.64
42247;BME280;27913;42.722;23.268;2023-05-20T01:17:30;95290.56;;;12.42;93.08
42247;BME280;27913;42.722;23.268;2023-05-20T01:19:58;95002.81;;;10.51;93.43
42247;BME280;27913;42.722;23.268;2023-05-20T01:22:27;95137.28;;;11.44;93.80
42247;BME280;27913;42.722;23.268;2023-05-20T01:24:54;95295.03;;;12.41;94.85
42247;BME280;27913;42.722;23.268;2023-05-20T01:27:21;95303.38;;;12.45;94.25
42247;BME280;27913;42.722;23.268;2023-05-20T01:29:48;95292.44;;;12.48;94.61
42247;BME280;27913;42.722;23.268;2023-05-20T01:32:31;95280.38;;;12.39;94.65
42247;BME280;27913;42.722;23.268;2023-05-20T01:34:59;95303.22;;;12.53;94.40
42247;BME280;27913;42.722;23.268;2023-05-20T01:37:26;95039.06;;;10.93;93.46
42247;BME280;27913;42.722;23.268;2023-05-20T01:39:53;95271.91;;;12.43;93.68
42247;BME280;27913;42.722;23.268;2023-05-20T01:42:19;95295.25;;;12.47;93.93
42247;BME280;27913;42.722;23.268;2023-05-20T01:44:45;95284.09;;;12.44;94.14
42247;BME280;27913;42.722;23.268;2023-05-20T01:47:10;95294.88;;;12.50;93.97
42247;BME280;27913;42.722;23.268;2023-05-20T01:49:36;95296.28;;;12.46;93.81
42247;BME280;27913;42.722;23.268;2023-05-20T01:52:03;95294.63;;;12.44;94.07
42247;BME280;27913;42.722;23.268;2023-05-20T01:54:28;95291.81;;;12.46;93.86
42247;BME280;27913;42.722;23.268;2023-05-20T01:56:54;95290.19;;;12.45;93.79
42247;BME280;27913;42.722;23.268;2023-05-20T01:59:20;95233.63;;;12.04;94.13
42247;BME280;27913;42.722;23.268;2023-05-20T02:01:45;95267.59;;;12.36;93.73
42247;BME280;27913;42.722;23.268;2023-05-20T02:04:11;95292.03;;;12.51;94.02
42247;BME280;27913;42.722;23.268;2023-05-20T02:06:37;95287.78;;;12.50;93.97
42247;BME280;27913;42.722;23.268;2023-05-20T02:09:02;95284.94;;;12.52;93.69
42247;BME280;27913;42.722;23.268;2023-05-20T02:11:28;95276.84;;;12.53;93.70
42247;BME280;27913;42.722;23.268;2023-05-20T02:13:53;95273.56;;;12.51;93.42
42247;BME280;27913;42.722;23.268;2023-05-20T02:16:19;95229.75;;;12.22;93.51
42247;BME280;27913;42.722;23.268;2023-05-20T02:18:45;95282.75;;;12.55;93.38
42247;BME280;27913;42.722;23.268;2023-05-20T02:21:11;95034.88;;;11.05;92.92
42247;BME280;27913;42.722;23.268;2023-05-20T02:23:36;95234.09;;;12.29;93.36
42247;BME280;27913;42.722;23.268;2023-05-20T02:26:02;95070.28;;;11.24;93.30
42247;BME280;27913;42.722;23.268;2023-05-20T02:28:27;95015.28;;;10.86;93.28
42247;BME280;27913;42.722;23.268;2023-05-20T02:30:53;95270.69;;;12.46;94.30
42247;BME280;27913;42.722;23.268;2023-05-20T02:33:19;95132.16;;;11.57;93.86
42247;BME280;27913;42.722;23.268;2023-05-20T02:35:44;95138.72;;;11.68;93.77
42247;BME280;27913;42.722;23.268;2023-05-20T02:38:11;95282.22;;;12.38;94.53
42247;BME280;27913;42.722;23.268;2023-05-20T02:40:37;95248.00;;;12.23;94.48
42247;BME280;27913;42.722;23.268;2023-05-20T02:43:02;95202.78;;;11.98;94.64
42247;BME280;27913;42.722;23.268;2023-05-20T02:45:28;95184.06;;;11.86;95.08
42247;BME280;27913;42.722;23.268;2023-05-20T02:47:54;95213.13;;;11.99;95.32
42247;BME280;27913;42.722;23.268;2023-05-20T02:50:19;95276.50;;;12.35;94.93
42247;BME280;27913;42.722;23.268;2023-05-20T02:52:45;95158.09;;;11.60;94.18
42247;BME280;27913;42.722;23.268;2023-05-20T02:55:11;95134.25;;;11.40;94.89
42247;BME280;27913;42.722;23.268;2023-05-20T02:57:38;95147.19;;;11.20;94.58
42247;BME280;27913;42.722;23.268;2023-05-20T03:00:04;95274.94;;;11.96;95.23
42247;BME280;27913;42.722;23.268;2023-05-20T03:02:31;95188.13;;;11.44;95.63
42247;BME280;27913;42.722;23.268;2023-05-20T03:04:57;95031.28;;;10.47;95.07
42247;BME280;27913;42.722;23.268;2023-05-20T03:07:22;95288.50;;;11.93;95.75
42247;BME280;27913;42.722;23.268;2023-05-20T03:09:48;95290.59;;;11.98;95.25
42247;BME280;27913;42.722;23.268;2023-05-20T03:12:13;95183.72;;;11.30;95.18
42247;BME280;27913;42.722;23.268;2023-05-20T03:14:39;95293.81;;;12.00;94.79
42247;BME280;27913;42.722;23.268;2023-05-20T03:17:04;95301.00;;;12.06;95.12
42247;BME280;27913;42.722;23.268;2023-05-20T03:19:30;95267.78;;;11.90;94.61
42247;BME280;27913;42.722;23.268;2023-05-20T03:21:56;95305.78;;;12.18;94.29
42247;BME280;27913;42.722;23.268;2023-05-20T03:24:22;95312.69;;;12.19;93.98
42247;BME280;27913;42.722;23.268;2023-05-20T03:26:48;95307.03;;;12.22;93.46
42247;BME280;27913;42.722;23.268;2023-05-20T03:29:13;95296.31;;;12.24;93.54
42247;BME280;27913;42.722;23.268;2023-05-20T03:31:39;95237.06;;;11.76;93.71
42247;BME280;27913;42.722;23.268;2023-05-20T03:34:05;95099.81;;;10.98;93.95
42247;BME280;27913;42.722;23.268;2023-05-20T03:36:30;95299.56;;;12.26;94.16
42247;BME280;27913;42.722;23.268;2023-05-20T03:38:56;95209.56;;;11.63;93.93
42247;BME280;27913;42.722;23.268;2023-05-20T03:41:21;95308.56;;;12.10;94.64
42247;BME280;27913;42.722;23.268;2023-05-20T03:43:47;95313.34;;;12.06;94.76
42247;BME280;27913;42.722;23.268;2023-05-20T03:46:12;95069.19;;;10.53;94.93
42247;BME280;27913;42.722;23.268;2023-05-20T03:48:38;95025.97;;;10.25;94.79
42247;BME280;27913;42.722;23.268;2023-05-20T03:51:03;95320.56;;;12.12;95.08
42247;BME280;27913;42.722;23.268;2023-05-20T03:53:29;95290.25;;;12.08;94.93
42247;BME280;27913;42.722;23.268;2023-05-20T03:55:54;95214.53;;;11.51;94.58
42247;BME280;27913;42.722;23.268;2023-05-20T03:58:20;95212.16;;;11.34;94.97
42247;BME280;27913;42.722;23.268;2023-05-20T04:00:47;95324.59;;;11.93;96.10
42247;BME280;27913;42.722;23.268;2023-05-20T04:03:13;95328.16;;;11.85;96.26
42247;BME280;27913;42.722;23.268;2023-05-20T04:05:38;95279.47;;;11.44;95.75
42247;BME280;27913;42.722;23.268;2023-05-20T04:08:04;95329.88;;;11.56;96.03
42247;BME280;27913;42.722;23.268;2023-05-20T04:10:30;95288.34;;;11.21;97.40
42247;BME280;27913;42.722;23.268;2023-05-20T04:12:58;95342.78;;;11.35;97.83
42247;BME280;27913;42.722;23.268;2023-05-20T04:15:24;95217.66;;;10.42;98.18
42247;BME280;27913;42.722;23.268;2023-05-20T04:17:50;95303.69;;;10.87;98.84
42247;BME280;27913;42.722;23.268;2023-05-20T04:20:17;95337.28;;;11.15;99.68
42247;BME280;27913;42.722;23.268;2023-05-20T04:22:43;95332.72;;;11.09;99.74
42247;BME280;27913;42.722;23.268;2023-05-20T04:25:09;95103.81;;;9.81;100.00
42247;BME280;27913;42.722;23.268;2023-05-20T04:27:34;95330.78;;;11.48;99.88
42247;BME280;27913;42.722;23.268;2023-05-20T04:30:02;95320.78;;;11.58;99.38
42247;BME280;27913;42.722;23.268;2023-05-20T04:32:28;95335.34;;;11.76;99.17
42247;BME280;27913;42.722;23.268;2023-05-20T04:34:54;95334.31;;;11.92;98.49
42247;BME280;27913;42.722;23.268;2023-05-20T04:37:20;95307.91;;;11.86;98.15
42247;BME280;27913;42.722;23.268;2023-05-20T04:39:46;95315.78;;;12.07;98.31
42247;BME280;27913;42.722;23.268;2023-05-20T04:42:14;95340.63;;;12.13;97.44
42247;BME280;27913;42.722;23.268;2023-05-20T04:44:42;95306.66;;;12.03;97.54
42247;BME280;27913;42.722;23.268;2023-05-20T04:47:10;95340.63;;;12.35;97.53
42247;BME280;27913;42.722;23.268;2023-05-20T04:49:36;95312.56;;;12.27;96.97
42247;BME280;27913;42.722;23.268;2023-05-20T04:52:03;95095.16;;;10.78;95.71
42247;BME280;27913;42.722;23.268;2023-05-20T04:54:31;95337.47;;;12.47;96.42
42247;BME280;27913;42.722;23.268;2023-05-20T04:56:57;95348.75;;;12.62;96.22
42247;BME280;27913;42.722;23.268;2023-05-20T04:59:22;95304.13;;;12.39;95.11
42247;BME280;27913;42.722;23.268;2023-05-20T05:01:48;95309.28;;;12.47;95.56
42247;BME280;27913;42.722;23.268;2023-05-20T05:04:13;95340.69;;;12.71;95.76
42247;BME280;27913;42.722;23.268;2023-05-20T05:06:39;95338.53;;;12.81;96.10
42247;BME280;27913;42.722;23.268;2023-05-20T05:09:05;95339.56;;;12.87;95.78
42247;BME280;27913;42.722;23.268;2023-05-20T05:11:30;95338.41;;;12.89;95.11
42247;BME280;27913;42.722;23.268;2023-05-20T05:13:56;95223.50;;;12.23;95.62
42247;BME280;27913;42.722;23.268;2023-05-20T05:16:21;95239.69;;;12.48;95.45
42247;BME280;27913;42.722;23.268;2023-05-20T05:18:47;95338.00;;;13.28;95.34
42247;BME280;27913;42.722;23.268;2023-05-20T05:21:12;95334.78;;;13.39;94.78
42247;BME280;27913;42.722;23.268;2023-05-20T05:23:38;95293.88;;;13.22;94.65
42247;BME280;27913;42.722;23.268;2023-05-20T05:26:03;95334.09;;;13.59;94.43
42247;BME280;27913;42.722;23.268;2023-05-20T05:28:29;95304.56;;;13.49;94.15
42247;BME280;27913;42.722;23.268;2023-05-20T05:30:55;95141.72;;;12.58;93.75
42247;BME280;27913;42.722;23.268;2023-05-20T05:33:21;95078.31;;;12.31;92.87
42247;BME280;27913;42.722;23.268;2023-05-20T05:35:48;95324.63;;;13.99;92.96
42247;BME280;27913;42.722;23.268;2023-05-20T05:38:14;95118.25;;;12.77;91.28
42247;BME280;27913;42.722;23.268;2023-05-20T05:40:42;95236.72;;;13.56;91.87
42247;BME280;27913;42.722;23.268;2023-05-20T05:43:08;95336.47;;;14.17;91.48
42247;BME280;27913;42.722;23.268;2023-05-20T05:45:33;95325.88;;;14.23;92.07
42247;BME280;27913;42.722;23.268;2023-05-20T05:47:59;95205.22;;;13.55;91.86
42247;BME280;27913;42.722;23.268;2023-05-20T05:50:26;95340.75;;;14.38;92.01
42247;BME280;27913;42.722;23.268;2023-05-20T05:52:52;95334.06;;;14.49;91.69
42247;BME280;27913;42.722;23.268;2023-05-20T05:55:17;95083.38;;;12.95;90.28
42247;BME280;27913;42.722;23.268;2023-05-20T05:57:43;95323.06;;;14.52;90.13
42247;BME280;27913;42.722;23.268;2023-05-20T06:00:09;95329.97;;;14.53;90.12
42247;BME280;27913;42.722;23.268;2023-05-20T06:02:34;95319.19;;;14.61;89.84
42247;BME280;27913;42.722;23.268;2023-05-20T06:05:04;95294.34;;;14.56;89.88
42247;BME280;27913;42.722;23.268;2023-05-20T06:07:31;95311.25;;;14.89;89.38
42247;BME280;27913;42.722;23.268;2023-05-20T06:09:57;95157.69;;;14.02;88.63
42247;BME280;27913;42.722;23.268;2023-05-20T06:12:24;95262.16;;;14.66;87.37
42247;BME280;27913;42.722;23.268;2023-05-20T06:14:50;95315.91;;;15.07;87.46
42247;BME280;27913;42.722;23.268;2023-05-20T06:17:17;95266.84;;;14.77;86.74
42247;BME280;27913;42.722;23.268;2023-05-20T06:19:43;95162.69;;;14.31;86.25
42247;BME280;27913;42.722;23.268;2023-05-20T06:22:08;95248.69;;;15.01;85.64
42247;BME280;27913;42.722;23.268;2023-05-20T06:24:34;95225.50;;;14.83;84.43
42247;BME280;27913;42.722;23.268;2023-05-20T06:26:59;95232.59;;;14.96;84.02
42247;BME280;27913;42.722;23.268;2023-05-20T06:29:28;95077.13;;;14.05;83.64
42247;BME280;27913;42.722;23.268;2023-05-20T06:31:53;95308.38;;;15.63;82.89
42247;BME280;27913;42.722;23.268;2023-05-20T06:34:20;95296.69;;;15.71;82.97
42247;BME280;27913;42.722;23.268;2023-05-20T06:36:46;95295.03;;;15.77;82.63
42247;BME280;27913;42.722;23.268;2023-05-20T06:39:12;95285.19;;;15.84;80.83
42247;BME280;27913;42.722;23.268;2023-05-20T06:41:38;95293.31;;;15.89;77.84
42247;BME280;27913;42.722;23.268;2023-05-20T06:44:07;95052.97;;;14.47;76.48
42247;BME280;27913;42.722;23.268;2023-05-20T06:46:33;95248.72;;;15.79;76.12
42247;BME280;27913;42.722;23.268;2023-05-20T06:48:58;95179.59;;;15.49;75.42
42247;BME280;27913;42.722;23.268;2023-05-20T06:51:26;95178.94;;;15.53;75.49
42247;BME280;27913;42.722;23.268;2023-05-20T06:53:54;95293.69;;;16.32;75.17
42247;BME280;27913;42.722;23.268;2023-05-20T06:56:19;95305.66;;;16.41;74.42
42247;BME280;27913;42.722;23.268;2023-05-20T06:58:45;95235.25;;;16.13;74.36
42247;BME280;27913;42.722;23.268;2023-05-20T07:01:12;95139.94;;;15.61;74.19
42247;BME280;27913;42.722;23.268;2023-05-20T07:03:37;95289.94;;;16.65;73.62
42247;BME280;27913;42.722;23.268;2023-05-20T07:06:03;95294.59;;;16.70;72.76
42247;BME280;27913;42.722;23.268;2023-05-20T07:08:28;95233.19;;;16.41;72.24
42247;BME280;27913;42.722;23.268;2023-05-20T07:10:55;95243.53;;;16.49;71.68
42247;BME280;27913;42.722;23.268;2023-05-20T07:13:20;95025.63;;;15.31;70.83
42247;BME280;27913;42.722;23.268;2023-05-20T07:15:48;95266.50;;;16.81;69.38
42247;BME280;27913;42.722;23.268;2023-05-20T07:18:14;95276.53;;;16.98;69.58
42247;BME280;27913;42.722;23.268;2023-05-20T07:20:41;95244.81;;;16.84;69.36
42247;BME280;27913;42.722;23.268;2023-05-20T07:23:07;95283.75;;;17.16;69.30
42247;BME280;27913;42.722;23.268;2023-05-20T07:25:32;95275.09;;;17.21;68.93
42247;BME280;27913;42.722;23.268;2023-05-20T07:27:58;95283.22;;;17.26;67.52
42247;BME280;27913;42.722;23.268;2023-05-20T07:30:43;95166.84;;;16.60;66.66
42247;BME280;27913;42.722;23.268;2023-05-20T07:33:16;95227.47;;;17.00;65.57
42247;BME280;27913;42.722;23.268;2023-05-20T07:35:42;95137.88;;;16.58;66.17
42247;BME280;27913;42.722;23.268;2023-05-20T07:38:10;95220.19;;;17.14;65.36
42247;BME280;27913;42.722;23.268;2023-05-20T07:40:40;95274.94;;;17.53;65.52
42247;BME280;27913;42.722;23.268;2023-05-20T07:43:07;95274.00;;;17.59;64.97
42247;BME280;27913;42.722;23.268;2023-05-20T07:45:36;95193.03;;;17.12;64.09
42247;BME280;27913;42.722;23.268;2023-05-20T07:48:02;95233.50;;;17.45;63.88
42247;BME280;27913;42.722;23.268;2023-05-20T07:50:28;95073.44;;;16.51;64.79
42247;BME280;27913;42.722;23.268;2023-05-20T07:52:54;95272.94;;;17.79;63.70
42247;BME280;27913;42.722;23.268;2023-05-20T07:55:22;95160.69;;;17.16;63.70
42247;BME280;27913;42.722;23.268;2023-05-20T07:57:48;95147.06;;;17.12;63.45
42247;BME280;27913;42.722;23.268;2023-05-20T08:00:13;95266.59;;;17.92;62.75
42247;BME280;27913;42.722;23.268;2023-05-20T08:02:40;95270.81;;;18.00;62.94
42247;BME280;27913;42.722;23.268;2023-05-20T08:05:06;95266.19;;;18.07;63.49
42247;BME280;27913;42.722;23.268;2023-05-20T08:07:33;95226.00;;;17.85;63.35
42247;BME280;27913;42.722;23.268;2023-05-20T08:09:59;95155.94;;;17.48;62.57
42247;BME280;27913;42.722;23.268;2023-05-20T08:12:25;95128.31;;;17.37;61.40
42247;BME280;27913;42.722;23.268;2023-05-20T08:14:50;95146.25;;;17.54;61.57
42247;BME280;27913;42.722;23.268;2023-05-20T08:17:16;95268.56;;;18.28;62.03
42247;BME280;27913;42.722;23.268;2023-05-20T08:19:41;95260.25;;;18.36;62.99
42247;BME280;27913;42.722;23.268;2023-05-20T08:22:07;95258.75;;;18.40;62.49
42247;BME280;27913;42.722;23.268;2023-05-20T08:24:34;95257.84;;;18.46;61.61
42247;BME280;27913;42.722;23.268;2023-05-20T08:27:00;95097.69;;;17.47;61.87
42247;BME280;27913;42.722;23.268;2023-05-20T08:29:25;95261.19;;;18.54;63.06
42247;BME280;27913;42.722;23.268;2023-05-20T08:31:51;95264.88;;;18.65;63.06
42247;BME280;27913;42.722;23.268;2023-05-20T08:34:16;95158.72;;;18.08;62.12
42247;BME280;27913;42.722;23.268;2023-05-20T08:36:42;95249.94;;;18.76;62.00
42247;BME280;27913;42.722;23.268;2023-05-20T08:39:09;95208.38;;;18.51;62.31
42247;BME280;27913;42.722;23.268;2023-05-20T08:41:37;95154.22;;;18.33;61.88
42247;BME280;27913;42.722;23.268;2023-05-20T08:44:04;95257.91;;;19.00;62.00
42247;BME280;27913;42.722;23.268;2023-05-20T08:46:33;95150.06;;;18.37;60.88
42247;BME280;27913;42.722;23.268;2023-05-20T08:48:58;95249.56;;;19.08;60.61
42247;BME280;27913;42.722;23.268;2023-05-20T08:51:26;95211.94;;;18.80;61.42
42247;BME280;27913;42.722;23.268;2023-05-20T08:53:52;95203.81;;;18.87;61.04
42247;BME280;27913;42.722;23.268;2023-05-20T08:56:19;95135.25;;;18.53;59.38
42247;BME280;27913;42.722;23.268;2023-05-20T08:58:46;95221.88;;;19.09;59.53
42247;BME280;27913;42.722;23.268;2023-05-20T09:01:12;95170.72;;;18.83;59.84
42247;BME280;27913;42.722;23.268;2023-05-20T09:03:38;95248.47;;;19.33;58.33
42247;BME280;27913;42.722;23.268;2023-05-20T09:06:05;95083.66;;;18.30;57.74
42247;BME280;27913;42.722;23.268;2023-05-20T09:08:31;95138.25;;;18.57;58.80
42247;BME280;27913;42.722;23.268;2023-05-20T09:10:57;95062.13;;;18.08;58.06
42247;BME280;27913;42.722;23.268;2023-05-20T09:13:26;95186.34;;;18.91;56.38
42247;BME280;27913;42.722;23.268;2023-05-20T09:15:54;95228.81;;;19.22;57.30
42247;BME280;27913;42.722;23.268;2023-05-20T09:18:20;95098.56;;;18.31;57.04
42247;BME280;27913;42.722;23.268;2023-05-20T09:20:49;95227.06;;;19.28;57.17
42247;BME280;27913;42.722;23.268;2023-05-20T09:23:18;95233.78;;;19.30;56.64
42247;BME280;27913;42.722;23.268;2023-05-20T09:25:48;95098.84;;;18.59;57.82
42247;BME280;27913;42.722;23.268;2023-05-20T09:28:17;95130.53;;;18.85;56.38
42247;BME280;27913;42.722;23.268;2023-05-20T09:30:43;95219.78;;;19.52;56.31
42247;BME280;27913;42.722;23.268;2023-05-20T09:33:12;95163.31;;;19.26;56.03
42247;BME280;27913;42.722;23.268;2023-05-20T09:35:38;95218.78;;;19.71;56.02
42247;BME280;27913;42.722;23.268;2023-05-20T09:38:05;95145.63;;;19.20;54.76
42247;BME280;27913;42.722;23.268;2023-05-20T09:40:34;95215.03;;;19.72;53.99
42247;BME280;27913;42.722;23.268;2023-05-20T09:43:07;95031.06;;;18.50;54.37
42247;BME280;27913;42.722;23.268;2023-05-20T09:45:33;95217.88;;;19.82;55.64
42247;BME280;27913;42.722;23.268;2023-05-20T09:48:00;95150.19;;;19.54;54.91
42247;BME280;27913;42.722;23.268;2023-05-20T09:50:27;95115.41;;;19.31;55.03
42247;BME280;27913;42.722;23.268;2023-05-20T09:52:54;95150.59;;;19.63;55.35
42247;BME280;27913;42.722;23.268;2023-05-20T09:55:23;94983.91;;;18.62;53.81
42247;BME280;27913;42.722;23.268;2023-05-20T09:57:49;95205.91;;;20.14;53.44
42247;BME280;27913;42.722;23.268;2023-05-20T10:00:18;95156.88;;;20.03;53.22
42247;BME280;27913;42.722;23.268;2023-05-20T10:02:49;95192.31;;;20.33;53.11
42247;BME280;27913;42.722;23.268;2023-05-20T10:05:20;95052.75;;;19.46;52.37
42247;BME280;27913;42.722;23.268;2023-05-20T10:10:47;95158.31;;;20.28;50.90
42247;BME280;27913;42.722;23.268;2023-05-20T10:13:40;95182.38;;;20.50;50.22
42247;BME280;27913;42.722;23.268;2023-05-20T10:16:32;95180.53;;;20.51;50.23
42247;BME280;27913;42.722;23.268;2023-05-20T10:19:28;95149.59;;;20.33;50.09
42247;BME280;27913;42.722;23.268;2023-05-20T10:22:05;95033.91;;;19.70;49.85
42247;BME280;27913;42.722;23.268;2023-05-20T10:24:32;95086.28;;;20.11;50.42
42247;BME280;27913;42.722;23.268;2023-05-20T10:27:00;95062.75;;;20.08;49.90
42247;BME280;27913;42.722;23.268;2023-05-20T10:29:28;95161.75;;;20.85;50.99
42247;BME280;27913;42.722;23.268;2023-05-20T10:31:56;94998.06;;;19.83;49.06
42247;BME280;27913;42.722;23.268;2023-05-20T10:35:59;95052.28;;;20.46;47.03
42247;BME280;27913;42.722;23.268;2023-05-20T10:38:25;95060.59;;;20.72;46.37
42247;BME280;27913;42.722;23.268;2023-05-20T10:40:52;94976.09;;;20.15;45.82
42247;BME280;27913;42.722;23.268;2023-05-20T10:43:28;95143.44;;;21.17;46.13
42247;BME280;27913;42.722;23.268;2023-05-20T10:45:55;95095.19;;;20.84;46.73
42247;BME280;27913;42.722;23.268;2023-05-20T10:48:30;95019.91;;;20.42;47.13
42247;BME280;27913;42.722;23.268;2023-05-20T10:50:58;95067.66;;;20.83;48.08
42247;BME280;27913;42.722;23.268;2023-05-20T10:53:27;95066.28;;;20.81;47.87
42247;BME280;27913;42.722;23.268;2023-05-20T10:55:53;95009.63;;;20.28;46.28
42247;BME280;27913;42.722;23.268;2023-05-20T10:58:21;95029.50;;;20.38;46.41
42247;BME280;27913;42.722;23.268;2023-05-20T11:00:48;95014.19;;;20.11;45.76
42247;BME280;27913;42.722;23.268;2023-05-20T11:03:20;95069.97;;;20.74;44.73
42247;BME280;27913;42.722;23.268;2023-05-20T11:05:47;95103.66;;;20.98;44.99
42247;BME280;27913;42.722;23.268;2023-05-20T11:08:13;95017.34;;;20.52;45.98
42247;BME280;27913;42.722;23.268;2023-05-20T11:10:41;95104.28;;;21.33;45.73
42247;BME280;27913;42.722;23.268;2023-05-20T11:13:06;95109.69;;;21.38;44.47
42247;BME280;27913;42.722;23.268;2023-05-20T11:15:34;95121.47;;;21.42;45.44
42247;BME280;27913;42.722;23.268;2023-05-20T11:18:01;95084.59;;;21.17;44.57
42247;BME280;27913;42.722;23.268;2023-05-20T11:20:27;95113.69;;;21.41;43.78
42247;BME280;27913;42.722;23.268;2023-05-20T11:22:53;95085.66;;;21.43;43.98
42247;BME280;27913;42.722;23.268;2023-05-20T11:25:19;95054.09;;;21.45;48.91
42247;BME280;27913;42.722;23.268;2023-05-20T11:27:48;94995.16;;;21.35;49.61
42247;BME280;27913;42.722;23.268;2023-05-20T11:30:14;95098.13;;;22.41;49.61
42247;BME280;27913;42.722;23.268;2023-05-20T11:33:00;94926.81;;;21.50;44.78
42247;BME280;27913;42.722;23.268;2023-05-20T11:37:13;95058.50;;;22.00;43.63
42247;BME280;27913;42.722;23.268;2023-05-20T11:39:40;94884.34;;;20.82;43.05
42247;BME280;27913;42.722;23.268;2023-05-20T11:42:05;95068.25;;;21.79;43.41
42247;BME280;27913;42.722;23.268;2023-05-20T11:44:31;94932.25;;;20.89;43.25
42247;BME280;27913;42.722;23.268;2023-05-20T11:47:01;95001.78;;;21.22;44.76
42247;BME280;27913;42.722;23.268;2023-05-20T11:49:27;95074.88;;;22.04;44.50
42247;BME280;27913;42.722;23.268;2023-05-20T11:51:53;95068.03;;;22.24;44.12
42247;BME280;27913;42.722;23.268;2023-05-20T11:54:21;95006.91;;;22.05;43.29
42247;BME280;27913;42.722;23.268;2023-05-20T11:56:47;95062.28;;;22.58;41.57
42247;BME280;27913;42.722;23.268;2023-05-20T11:59:13;95055.66;;;22.71;42.63
42247;BME280;27913;42.722;23.268;2023-05-20T12:01:39;94891.88;;;21.77;42.20
42247;BME280;27913;42.722;23.268;2023-05-20T12:04:08;95050.63;;;22.96;41.18
42247;BME280;27913;42.722;23.268;2023-05-20T12:06:34;95042.34;;;23.08;40.87
42247;BME280;27913;42.722;23.268;2023-05-20T12:09:02;94956.78;;;22.64;40.82
42247;BME280;27913;42.722;23.268;2023-05-20T12:11:33;94952.47;;;22.63;41.20
42247;BME280;27913;42.722;23.268;2023-05-20T12:13:59;94988.69;;;22.92;41.47
42247;BME280;27913;42.722;23.268;2023-05-20T12:16:24;95017.44;;;23.28;40.96
42247;BME280;27913;42.722;23.268;2023-05-20T12:18:49;94993.81;;;23.25;40.22
42247;BME280;27913;42.722;23.268;2023-05-20T12:21:15;95002.41;;;23.37;39.88
42247;BME280;27913;42.722;23.268;2023-05-20T12:23:40;95040.50;;;23.71;39.72
42247;BME280;27913;42.722;23.268;2023-05-20T12:26:06;94973.44;;;23.19;40.72
42247;BME280;27913;42.722;23.268;2023-05-20T12:28:31;95015.56;;;23.55;40.65
42247;BME280;27913;42.722;23.268;2023-05-20T12:30:57;95051.53;;;23.69;40.75
42247;BME280;27913;42.722;23.268;2023-05-20T12:33:22;95057.16;;;23.78;38.42
42247;BME280;27913;42.722;23.268;2023-05-20T12:35:48;94935.91;;;23.13;38.39
42247;BME280;27913;42.722;23.268;2023-05-20T12:38:14;94969.94;;;23.34;38.69
42247;BME280;27913;42.722;23.268;2023-05-20T12:40:39;94963.75;;;22.97;39.00
42247;BME280;27913;42.722;23.268;2023-05-20T12:43:05;95066.03;;;23.68;39.78
42247;BME280;27913;42.722;23.268;2023-05-20T12:45:31;95055.00;;;23.80;40.64
42247;BME280;27913;42.722;23.268;2023-05-20T12:47:56;95027.88;;;23.14;40.87
42247;BME280;27913;42.722;23.268;2023-05-20T12:50:23;95014.94;;;22.85;39.36
42247;BME280;27913;42.722;23.268;2023-05-20T12:52:49;95076.97;;;23.35;37.80
42247;BME280;27913;42.722;23.268;2023-05-20T12:55:15;95069.44;;;23.27;36.48
42247;BME280;27913;42.722;23.268;2023-05-20T12:57:42;95070.25;;;23.12;36.43